Lebec, California
Current Conditions -  °F | °C
As of 6:48 PM on Friday 21 Nov 2014 (Local Time) from KSDB Reporting Station
Haze Haze  
Wind Chill: 32°   Ceiling: 100
Heat Index: 42°   Visibility: 0.75mi
Dew Point: 39°   Wind: 25mph
Humidity: 89%   Direction: 330°NNW
Pressure: 30.1"   Gusts: NA
Location:  34.84°N, 118.87°W
Report Text: KSDB 220248Z AUTO 33022KT 3/4SM BR VV001 06/04 A3010 RMK AO2 PK WND 33028/0211 SLP177 T00560039 53011
Loading
Personal Weather Stations






























Interactive Weather Map New forecast layout! Learn more

10-Day Weather Forecast

Advertisements
Track Severe Weather on mobile